• Join FlightAware (Why Join?)
  • Login
  • US Flag 
07:16AM EDT


 

Airport Tracker/Info


-or-


 

Live Flight TrackerFlight Track Log ✈ ASQ5678 ✈ 19-Jun-2013 ✈ KEWR - KCVG

Flight Track Log - Related Links

Times and Time Zones

All times are in EDT time to prevent confusion due to time zone crossing. See the ASQ5678 flight status page for this flight to view local times or setup timezone preferences in your user account.

Time Position Orientation Groundspeed Altitude Reporting Facility
EDT Latitude Longitude Course Direction KTS MPH feet Rate Location/Type
06:22PM 40.7167 -74.1333 258° West 176 203 1,900  Level New York TRACON
06:23PM 40.7667 -74.0833 37° Northeast 248 285 3,100 1,980 Climbing New York TRACON
06:25PM 40.6834 -74.6605 270° West  Level FlightAware Approximate
06:25PM 40.7706 -74.2592 272° West 252 290 8,100  Level New York Center
06:26PM 40.6834 -74.7840 270° West  Level FlightAware Approximate
06:26PM 40.7594 -74.3489 261° West 271 312 10,300  Level New York Center
06:27PM 40.6834 -74.9074 270° West  Level FlightAware Approximate
06:27PM 40.7475 -74.4717 263° West 312 359 11,400  Level New York Center
06:28PM 40.6729 -75.0294 258° West  Level FlightAware Approximate
06:28PM 40.7375 -74.5861 263° West 344 396 13,200  Level New York Center
06:29PM 40.7228 -74.7194 262° West 349 402 15,200 1,680 Climbing New York Center
06:30PM 40.7106 -74.8283 262° West 349 402 16,700 1,500 Climbing New York Center
06:31PM 40.6953 -74.9697 262° West 349 402 18,200 1,320 Climbing New York Center
06:32PM 40.6761 -75.0944 259° West 349 402 19,400 1,260 Climbing New York Center
06:33PM 40.6217 -75.2139 239° Southwest 364 419 20,700 1,200 Climbing New York Center
06:34PM 40.5692 -75.3336 240° Southwest 364 419 21,900 1,260 Climbing New York Center
06:35PM 40.5125 -75.4553 239° Southwest 381 438 23,300 1,620 Climbing New York Center
06:36PM 40.4600 -75.5692 239° Southwest 381 438 25,200 1,800 Climbing New York Center
06:37PM 40.4094 -75.6800 239° Southwest 376 433 26,900 1,680 Climbing New York Center
06:38PM 40.3592 -75.7883 239° Southwest 364 419 28,600 1,680 Climbing New York Center
06:39PM 40.3108 -75.8908 238° Southwest 351 404 30,400 1,800 Climbing New York Center
06:40PM 40.2653 -75.9828 237° Southwest 346 398 32,300 1,860 Climbing New York Center
06:41PM 40.2192 -76.0797 238° Southwest 326 375 34,200 1,500 Climbing New York Center
06:42PM 40.1800 -76.1611 238° Southwest 321 369 35,400 900 Climbing New York Center
06:43PM 40.1317 -76.2633 238° Southwest 306 352 36,000 180 Climbing New York Center
06:45PM 40.0481 -76.4561 241° Southwest 327 376 36,000  Level Washington Center
06:46PM 39.9950 -76.5664 238° Southwest 352 405 36,000  Level Washington Center
06:47PM 39.9422 -76.6767 238° Southwest 359 413 36,000  Level Washington Center
06:48PM 39.8828 -76.7975 237° Southwest 359 413 36,000  Level Washington Center
06:49PM 39.8294 -76.9100 238° Southwest 364 419 36,000  Level Washington Center
06:50PM 39.7781 -77.0197 239° Southwest 364 419 36,000  Level Washington Center
06:51PM 39.7247 -77.1347 239° Southwest 364 419 36,000  Level Washington Center
06:52PM 39.6711 -77.2467 238° Southwest 370 426 36,000  Level Washington Center
06:53PM 39.6217 -77.3561 240° Southwest 370 426 36,000  Level Washington Center
06:54PM 39.5678 -77.4653 237° Southwest 365 420 36,000  Level Washington Center
06:55PM 39.5161 -77.5742 238° Southwest 365 420 36,000  Level Washington Center
06:56PM 39.4642 -77.6828 238° Southwest 365 420 36,000  Level Washington Center
06:57PM 39.4122 -77.7942 239° Southwest 360 414 36,000  Level Washington Center
06:58PM 39.3622 -77.9056 240° Southwest 360 414 36,000  Level Washington Center
06:59PM 39.3183 -78.0167 243° Southwest 355 409 36,000  Level Washington Center
07:00PM 39.2722 -78.1333 243° Southwest 355 409 36,000  Level Washington Center
07:01PM 39.2281 -78.2469 243° Southwest 360 414 36,000  Level Washington Center
07:02PM 39.1906 -78.3367 242° Southwest 360 414 36,000  Level Washington Center
07:03PM 39.1353 -78.4764 243° Southwest 360 414 36,000  Level Washington Center
07:04PM 39.0886 -78.5922 243° Southwest 360 414 36,000  Level Washington Center
07:05PM 39.0583 -78.7167 253° West 360 414 36,000  Level Washington Center
07:06PM 39.0383 -78.8467 259° West 365 420 36,000  Level Washington Center
07:07PM 39.0181 -78.9767 259° West 370 426 36,000  Level Washington Center
07:08PM 38.9953 -79.1092 258° West 375 432 36,000 -60 Level Washington Center
07:09PM 38.9728 -79.2417 258° West 375 432 35,900 -600 Descending Washington Center
07:10PM 38.9519 -79.3742 259° West 381 438 34,900 -1,020 Descending Washington Center
07:11PM 38.9289 -79.5064 257° West 381 438 34,000 -480 Descending Washington Center
07:12PM 38.9053 -79.6492 258° West 392 451 34,000  Level Washington Center
07:13PM 38.8819 -79.7839 257° West 399 459 34,000  Level Washington Center
07:14PM 38.8500 -79.9400 255° West 402 463 34,000  Level Indianapolis Center
07:15PM 38.8269 -80.0792 258° West 400 460 34,000  Level Indianapolis Center
07:16PM 38.8158 -80.2217 264° West 402 463 34,000  Level Indianapolis Center
07:17PM 38.8128 -80.3617 268° West 396 456 34,000  Level Indianapolis Center
07:19PM 38.8083 -80.5031 268° West 396 456 34,000  Level Indianapolis Center
07:20PM 38.8036 -80.6747 268° West 398 458 34,000 -360 Level Indianapolis Center
07:21PM 38.7897 -80.8164 263° West 407 468 33,300 -840 Descending Indianapolis Center
07:22PM 38.7686 -80.9594 259° West 410 472 32,300 -1,020 Descending Indianapolis Center
07:23PM 38.7478 -81.1017 259° West 408 470 31,200 -1,020 Descending Indianapolis Center
07:24PM 38.7261 -81.2453 259° West 406 467 30,300 -900 Descending Indianapolis Center
07:25PM 38.7042 -81.3867 259° West 409 471 29,400 -1,020 Descending Indianapolis Center
07:26PM 38.6775 -81.5619 259° West 424 488 28,300 -1,020 Descending Indianapolis Center
07:27PM 38.6567 -81.6986 259° West 426 490 27,400 -960 Descending Indianapolis Center
07:28PM 38.6331 -81.8500 259° West 433 498 26,400 -1,020 Descending Indianapolis Center
07:29PM 38.6086 -82.0022 258° West 434 499 25,400 -1,080 Descending Indianapolis Center
07:30PM 38.5789 -82.1861 258° West 441 507 24,200 -720 Descending Indianapolis Center
07:31PM 38.5547 -82.3350 258° West 430 495 24,000 -180 Descending Indianapolis Center
07:32PM 38.5306 -82.4808 258° West 422 486 23,900 -540 Descending Indianapolis Center
07:33PM 38.5050 -82.6392 258° West 432 497 23,000 -480 Descending Indianapolis Center
07:34PM 38.4803 -82.7869 258° West 429 494 23,000  Level Indianapolis Center
07:35PM 38.4564 -82.9347 258° West 426 490 23,000  Level Indianapolis Center
07:36PM 38.4689 -83.1036 275° West 413 475 23,000 -900 Level Indianapolis Center
07:37PM 38.4956 -83.2497 283° West 419 482 21,200 -1,980 Descending Indianapolis Center
07:38PM 38.5217 -83.3933 283° West 416 479 19,000 -2,220 Descending Indianapolis Center
07:39PM 38.5450 -83.5322 282° West 405 466 16,700 -2,280 Descending Indianapolis Center
07:40PM 38.5692 -83.6650 283° West 390 449 14,300 -2,460 Descending Indianapolis Center
07:41PM 38.5911 -83.7947 282° West 377 434 11,700 -2,160 Descending Indianapolis Center
07:42PM 38.6225 -83.9400 286° West 365 420 9,900 -900 Descending Indianapolis Center
07:43PM 38.6744 -84.0369 304° West 354 407 9,900  Level Indianapolis Center
07:44PM 38.7317 -84.1506 303° West 370 426 9,900  Level Indianapolis Center
07:45PM 38.7883 -84.2589 304° West 365 420 9,900  Level Indianapolis Center
07:46PM 38.8433 -84.3669 303° West 361 415 9,900  Level Indianapolis Center
07:47PM 38.8994 -84.4761 303° West 361 415 9,900 -180 Level Indianapolis Center
07:48PM 38.9731 -84.5361 328° Northwest 320 368 9,600 -1,200 Descending Indianapolis Center
07:49PM 39.0644 -84.5408 358° North 283 326 7,500 -2,040 Descending Indianapolis Center
07:50PM 39.1364 -84.5447 358° North 264 304 5,500 -1,920 Descending Indianapolis Center
07:52PM 39.1578 -84.6064 294° West 233 268 3,600 -1,860 Descending Indianapolis Center